createdAt,value
2019-01-18T00:01:54.937Z,89.67
2019-01-18T00:04:25.539Z,89.34
2019-01-18T00:06:56.219Z,89.46
2019-01-18T00:09:26.927Z,90.14
2019-01-18T00:12:02.145Z,89.93
2019-01-18T00:14:33.753Z,90.15
2019-01-18T00:17:05.620Z,90.15
2019-01-18T00:19:36.839Z,90.25
2019-01-18T00:22:07.998Z,90.50
2019-01-18T00:24:39.350Z,90.49
2019-01-18T00:27:10.071Z,90.47
2019-01-18T00:29:40.934Z,90.15
2019-01-18T00:32:12.691Z,90.31
2019-01-18T00:34:43.285Z,90.21
2019-01-18T00:37:14.014Z,89.83
2019-01-18T00:39:44.936Z,90.01
2019-01-18T00:42:15.514Z,89.93
2019-01-18T00:44:46.159Z,90.15
2019-01-18T00:47:16.812Z,90.24
2019-01-18T00:49:47.430Z,90.39
2019-01-18T00:52:18.060Z,90.55
2019-01-18T00:54:48.763Z,90.12
2019-01-18T00:57:19.416Z,90.36
2019-01-18T00:59:50.072Z,90.48
2019-01-18T01:02:20.678Z,90.41
2019-01-18T01:04:51.316Z,90.30
2019-01-18T01:07:22.007Z,90.19
2019-01-18T01:09:52.727Z,90.15
2019-01-18T01:12:23.341Z,90.07
2019-01-18T01:15:14.226Z,90.10
2019-01-18T01:17:44.941Z,90.48
2019-01-18T01:20:17.885Z,90.39
2019-01-18T01:22:48.638Z,89.91
2019-01-18T01:25:19.776Z,90.28
2019-01-18T01:27:50.913Z,90.62
2019-01-18T01:30:24.957Z,90.36
2019-01-18T01:32:56.670Z,90.00
2019-01-18T01:35:27.390Z,90.32
2019-01-18T01:37:58.098Z,90.18
2019-01-18T01:40:30.259Z,90.21
2019-01-18T01:43:00.939Z,90.01
2019-01-18T01:45:31.573Z,89.76
2019-01-18T01:48:02.238Z,89.65
2019-01-18T01:50:32.836Z,89.99
2019-01-18T01:53:03.391Z,90.04
2019-01-18T01:55:34.018Z,90.01
2019-01-18T01:58:05.166Z,90.22
2019-01-18T02:00:35.798Z,90.37
2019-01-18T02:03:06.412Z,90.40
2019-01-18T02:05:37.032Z,90.14
2019-01-18T02:08:07.714Z,90.30
2019-01-18T02:10:38.371Z,90.23
2019-01-18T02:13:08.988Z,90.48
2019-01-18T02:15:39.638Z,90.45
2019-01-18T02:18:10.365Z,90.30
2019-01-18T02:20:41.003Z,90.01
2019-01-18T02:23:11.708Z,90.07
2019-01-18T02:25:42.455Z,90.05
2019-01-18T02:28:13.072Z,89.95
2019-01-18T02:30:43.678Z,90.14
2019-01-18T02:33:14.338Z,90.50
2019-01-18T02:35:45.021Z,90.34
2019-01-18T02:38:15.655Z,90.66
2019-01-18T02:40:46.392Z,90.76
2019-01-18T02:43:17.087Z,90.91
2019-01-18T02:45:47.837Z,91.02
2019-01-18T02:48:18.660Z,90.64
2019-01-18T02:50:49.383Z,90.94
2019-01-18T02:53:20.032Z,90.61
2019-01-18T02:55:50.668Z,90.64
2019-01-18T02:58:21.364Z,90.53
2019-01-18T03:00:52.007Z,90.80
2019-01-18T03:03:22.808Z,90.86
2019-01-18T03:05:53.533Z,90.89
2019-01-18T03:08:24.181Z,90.82
2019-01-18T03:10:54.938Z,90.73
2019-01-18T03:13:25.635Z,90.60
2019-01-18T03:15:56.395Z,90.84
2019-01-18T03:18:27.073Z,91.20
2019-01-18T03:20:57.807Z,91.15
2019-01-18T03:23:29.433Z,91.23
2019-01-18T03:26:00.249Z,91.21
2019-01-18T03:28:31.843Z,91.10
2019-01-18T03:31:02.626Z,91.06
2019-01-18T03:33:33.302Z,91.08
2019-01-18T03:36:03.891Z,91.24
2019-01-18T03:38:34.518Z,90.99
2019-01-18T03:41:05.537Z,91.01
2019-01-18T03:43:36.099Z,91.33
2019-01-18T03:46:06.989Z,91.09
2019-01-18T03:48:37.619Z,91.14
2019-01-18T03:51:08.257Z,91.38
2019-01-18T03:53:38.840Z,91.55
2019-01-18T03:56:09.551Z,91.69
2019-01-18T03:58:40.227Z,91.88
2019-01-18T04:01:10.847Z,91.49
2019-01-18T04:03:41.496Z,91.52
2019-01-18T04:06:12.089Z,91.34
2019-01-18T04:08:42.903Z,91.44
2019-01-18T04:11:13.634Z,91.75
2019-01-18T04:13:44.406Z,91.77
2019-01-18T04:16:15.471Z,91.88
2019-01-18T04:18:46.104Z,92.17
2019-01-18T04:21:16.864Z,92.26
2019-01-18T04:23:48.724Z,92.21
2019-01-18T04:26:19.511Z,92.42
2019-01-18T04:28:50.170Z,90.78
2019-01-18T04:31:20.861Z,91.59
2019-01-18T04:33:51.492Z,92.19
2019-01-18T04:36:22.293Z,92.57
2019-01-18T04:38:52.949Z,92.30
2019-01-18T04:41:23.675Z,92.34
2019-01-18T04:43:54.395Z,92.46
2019-01-18T04:46:25.034Z,92.61
2019-01-18T04:48:55.772Z,92.42
2019-01-18T04:51:26.502Z,92.37
2019-01-18T04:53:57.216Z,92.32
2019-01-18T04:56:27.947Z,92.29
2019-01-18T04:58:58.768Z,92.21
2019-01-18T05:01:50.352Z,92.04
2019-01-18T05:04:22.247Z,92.22
2019-01-18T05:32:26.874Z,91.32
2019-01-18T05:34:57.481Z,91.12
2019-01-18T05:37:28.268Z,91.04
2019-01-18T05:39:58.960Z,91.54
2019-01-18T05:42:30.931Z,92.37
2019-01-18T05:45:01.641Z,92.38
2019-01-18T05:47:32.355Z,92.34
2019-01-18T05:50:03.057Z,92.36
2019-01-18T05:52:33.702Z,91.97
2019-01-18T05:55:04.801Z,91.47
2019-01-18T05:57:35.340Z,91.69
2019-01-18T06:00:14.408Z,91.21
2019-01-18T06:02:44.921Z,91.41
2019-01-18T06:05:16.495Z,91.12
2019-01-18T06:07:47.149Z,90.97
2019-01-18T06:10:17.768Z,90.96
2019-01-18T06:12:48.286Z,91.24
2019-01-18T06:15:18.956Z,91.13
2019-01-18T06:17:49.492Z,91.89
2019-01-18T06:20:20.195Z,91.99
2019-01-18T06:22:50.779Z,91.77
2019-01-18T06:25:21.322Z,91.08
2019-01-18T06:27:51.994Z,90.56
2019-01-18T06:30:23.005Z,91.04
2019-01-18T06:32:53.684Z,91.01
2019-01-18T06:35:24.208Z,90.79
2019-01-18T06:37:54.894Z,91.39
2019-01-18T06:40:25.522Z,91.30
2019-01-18T06:42:56.043Z,91.25
2019-01-18T06:45:27.673Z,91.20
2019-01-18T06:47:58.276Z,91.69
2019-01-18T06:50:28.812Z,91.31
2019-01-18T06:52:59.367Z,91.69
2019-01-18T06:55:29.882Z,92.26
2019-01-18T06:58:01.383Z,92.81
2019-01-18T07:00:35.900Z,93.74
2019-01-18T07:03:07.242Z,93.43
2019-01-18T07:05:37.743Z,92.91
2019-01-18T07:08:08.345Z,92.49
2019-01-18T07:10:38.927Z,92.41
2019-01-18T07:13:10.125Z,92.83
2019-01-18T07:15:40.712Z,92.63
2019-01-18T07:18:11.584Z,93.24
2019-01-18T07:20:42.124Z,93.18
2019-01-18T07:23:12.649Z,93.07
2019-01-18T07:25:43.184Z,92.93
2019-01-18T07:28:13.747Z,93.14
2019-01-18T07:30:44.934Z,93.32
2019-01-18T07:33:17.507Z,93.57
2019-01-18T07:35:48.013Z,93.69
2019-01-18T07:38:18.643Z,93.58
2019-01-18T07:40:49.224Z,93.41
2019-01-18T07:43:19.800Z,93.26
2019-01-18T07:45:50.414Z,93.16
2019-01-18T07:48:21.008Z,93.05
2019-01-18T07:50:51.528Z,93.01
2019-01-18T07:53:22.175Z,93.11
2019-01-18T07:55:52.762Z,92.74
2019-01-18T07:58:23.366Z,92.77
2019-01-18T08:00:54.022Z,92.30
2019-01-18T08:03:24.662Z,92.42
2019-01-18T08:05:55.334Z,92.18
2019-01-18T08:08:26.054Z,92.13
2019-01-18T08:10:56.659Z,92.08
2019-01-18T08:13:27.286Z,91.75
2019-01-18T08:15:57.977Z,91.71
2019-01-18T08:18:28.593Z,91.48
2019-01-18T08:20:59.208Z,91.68
2019-01-18T08:23:29.880Z,91.75
2019-01-18T08:26:00.562Z,91.76
2019-01-18T08:28:31.382Z,91.29
2019-01-18T08:31:01.994Z,91.09
2019-01-18T08:33:32.675Z,91.49
2019-01-18T08:36:03.554Z,91.09
2019-01-18T08:38:34.141Z,91.47
2019-01-18T08:41:04.687Z,91.72
2019-01-18T08:43:35.270Z,91.77
2019-01-18T08:46:09.743Z,91.83
2019-01-18T08:48:40.286Z,91.89
2019-01-18T08:51:10.791Z,91.15
2019-01-18T08:53:41.344Z,91.07
2019-01-18T08:56:12.328Z,90.94
2019-01-18T08:58:42.856Z,91.19
2019-01-18T09:01:13.488Z,90.89
2019-01-18T09:03:44.062Z,91.18
2019-01-18T09:06:14.620Z,91.19
2019-01-18T09:08:45.173Z,90.89
2019-01-18T09:11:15.744Z,91.04
2019-01-18T09:13:46.283Z,91.08
2019-01-18T09:16:16.811Z,91.18
2019-01-18T09:18:47.344Z,91.07
2019-01-18T09:21:17.901Z,91.05
2019-01-18T09:23:48.543Z,91.00
2019-01-18T09:26:19.233Z,91.08
2019-01-18T09:28:49.902Z,90.95
2019-01-18T09:31:20.586Z,91.19
2019-01-18T09:33:51.165Z,91.07
2019-01-18T09:36:21.760Z,91.17
2019-01-18T09:38:52.467Z,91.28
2019-01-18T09:41:23.244Z,91.62
2019-01-18T09:43:53.961Z,91.66
2019-01-18T09:46:24.552Z,91.61
2019-01-18T09:48:56.020Z,91.61
2019-01-18T09:51:26.616Z,91.63
2019-01-18T09:53:57.466Z,91.38
2019-01-18T09:56:28.091Z,91.83
2019-01-18T09:58:58.767Z,92.09
2019-01-18T10:01:29.541Z,91.96
2019-01-18T10:04:00.373Z,91.99
2019-01-18T10:06:30.968Z,91.31
2019-01-18T10:09:01.640Z,90.91
2019-01-18T10:11:32.287Z,91.22
2019-01-18T10:14:02.804Z,90.72
2019-01-18T10:16:33.362Z,90.81
2019-01-18T10:19:03.858Z,91.28
2019-01-18T10:21:34.456Z,91.36
2019-01-18T10:24:05.107Z,91.07
2019-01-18T10:26:35.755Z,91.20
2019-01-18T10:29:06.455Z,91.30
2019-01-18T10:31:37.193Z,91.76
2019-01-18T10:34:07.679Z,91.87
2019-01-18T10:36:38.218Z,91.35
2019-01-18T10:39:11.237Z,91.50
2019-01-18T10:41:41.746Z,91.89
2019-01-18T10:44:12.330Z,92.01
2019-01-18T10:46:42.979Z,91.91
2019-01-18T10:49:13.627Z,92.24
2019-01-18T10:51:44.407Z,92.36
2019-01-18T10:54:34.463Z,92.03
2019-01-18T10:57:05.046Z,92.40
2019-01-18T10:59:35.657Z,92.33
2019-01-18T11:02:07.168Z,92.58
2019-01-18T11:04:38.070Z,92.54
2019-01-18T11:07:11.558Z,93.33
2019-01-18T11:12:18.282Z,93.72
2019-01-18T11:14:48.777Z,93.97
2019-01-18T11:17:19.339Z,93.73
2019-01-18T11:19:50.755Z,93.71
2019-01-18T11:22:21.278Z,94.29
2019-01-18T11:24:51.841Z,94.59
2019-01-18T11:27:22.434Z,94.05
2019-01-18T11:29:52.944Z,94.54
2019-01-18T11:32:23.611Z,94.74
2019-01-18T11:34:54.161Z,94.42
2019-01-18T11:37:24.645Z,94.44
2019-01-18T11:39:55.255Z,94.73
2019-01-18T11:42:25.938Z,94.63
2019-01-18T11:44:56.496Z,94.90
2019-01-18T11:47:28.352Z,94.99
2019-01-18T11:49:59.172Z,95.08
2019-01-18T11:52:30.993Z,95.09
2019-01-18T11:55:01.792Z,95.22
2019-01-18T11:57:32.567Z,95.36
2019-01-18T12:00:03.236Z,94.70
2019-01-18T12:02:33.761Z,94.61
2019-01-18T12:05:04.537Z,94.03
2019-01-18T12:07:35.205Z,94.32
2019-01-18T12:10:10.188Z,94.52
2019-01-18T12:12:40.743Z,94.42
2019-01-18T12:15:12.090Z,94.58
2019-01-18T12:17:42.907Z,94.72
2019-01-18T12:20:17.934Z,94.91
2019-01-18T12:22:48.831Z,94.95
2019-01-18T12:25:20.045Z,94.89
2019-01-18T12:27:57.059Z,94.71
2019-01-18T12:30:31.787Z,94.72
2019-01-18T12:33:02.680Z,94.81
2019-01-18T12:35:33.420Z,94.81
2019-01-18T12:38:04.159Z,95.10
2019-01-18T12:40:35.019Z,95.06
2019-01-18T12:43:05.824Z,95.28
2019-01-18T12:45:36.423Z,95.01
2019-01-18T12:48:07.416Z,94.82
2019-01-18T12:50:40.304Z,95.05
2019-01-18T12:53:10.997Z,95.14
2019-01-18T12:55:42.876Z,95.23
2019-01-18T12:58:13.625Z,95.24
2019-01-18T13:00:44.285Z,95.07
2019-01-18T13:03:14.921Z,95.12
2019-01-18T13:05:51.565Z,95.29
2019-01-18T13:08:22.324Z,95.34
2019-01-18T13:10:55.863Z,95.43
2019-01-18T13:13:26.547Z,95.80
2019-01-18T13:16:17.092Z,96.11
2019-01-18T13:18:51.824Z,96.22
2019-01-18T13:21:22.520Z,96.08
2019-01-18T13:23:53.180Z,96.14
2019-01-18T13:26:23.992Z,96.11
2019-01-18T13:28:54.694Z,95.91
2019-01-18T13:31:25.514Z,95.50
2019-01-18T13:33:56.320Z,95.48
2019-01-18T13:36:27.120Z,95.57
2019-01-18T13:38:58.184Z,95.80
2019-01-18T13:41:29.001Z,95.64
2019-01-18T13:43:59.776Z,95.74
2019-01-18T13:46:30.467Z,95.55
2019-01-18T13:49:00.988Z,95.56
2019-01-18T13:51:31.659Z,95.40
2019-01-18T13:54:02.314Z,95.57
2019-01-18T13:56:33.037Z,95.48
2019-01-18T13:59:03.795Z,95.27
2019-01-18T14:01:34.364Z,95.46
2019-01-18T14:04:05.182Z,95.34
2019-01-18T14:06:35.810Z,95.22
2019-01-18T14:09:10.095Z,95.36
2019-01-18T14:11:41.518Z,95.63
2019-01-18T14:14:13.671Z,95.50
2019-01-18T14:16:44.299Z,95.68
2019-01-18T14:19:14.923Z,95.77
2019-01-18T14:21:45.471Z,95.88
2019-01-18T14:24:16.074Z,95.89
2019-01-18T14:26:46.951Z,95.97
2019-01-18T14:29:17.578Z,96.02
2019-01-18T14:31:48.197Z,96.19
2019-01-18T14:34:19.023Z,96.37
2019-01-18T14:36:50.523Z,96.25
2019-01-18T14:39:21.391Z,96.14
2019-01-18T14:41:52.108Z,96.07
2019-01-18T14:44:22.748Z,96.12
2019-01-18T14:46:55.676Z,96.03
2019-01-18T14:49:26.401Z,96.27
2019-01-18T14:51:57.008Z,96.53
2019-01-18T14:54:27.864Z,96.51
2019-01-18T14:56:58.527Z,96.51
2019-01-18T14:59:29.068Z,96.36
2019-01-18T15:01:59.667Z,96.47
2019-01-18T15:04:30.382Z,96.52
2019-01-18T15:07:01.111Z,96.52
2019-01-18T15:09:31.840Z,96.69
2019-01-18T15:12:02.523Z,96.70
2019-01-18T15:14:33.709Z,96.49
2019-01-18T15:17:04.273Z,96.33
2019-01-18T15:19:34.874Z,96.51
2019-01-18T15:22:05.469Z,96.67
2019-01-18T15:24:36.352Z,96.74
2019-01-18T15:27:07.771Z,96.82
2019-01-18T15:29:38.614Z,96.90
2019-01-18T15:34:45.319Z,96.88
2019-01-18T15:37:15.861Z,96.89
2019-01-18T15:39:46.323Z,96.99
2019-01-18T15:42:16.889Z,97.08
2019-01-18T15:44:47.433Z,97.17
2019-01-18T15:47:17.957Z,97.24
2019-01-18T15:49:48.518Z,97.17
2019-01-18T15:52:19.037Z,97.15
2019-01-18T15:54:49.529Z,97.15
2019-01-18T15:57:20.101Z,97.16
2019-01-18T15:59:50.605Z,97.14
2019-01-18T16:02:21.100Z,97.20
2019-01-18T16:04:51.640Z,97.27
2019-01-18T16:07:22.124Z,97.37
2019-01-18T16:09:52.630Z,97.53
2019-01-18T16:12:23.196Z,97.57
2019-01-18T16:14:53.701Z,97.57
2019-01-18T16:17:29.319Z,97.52
2019-01-18T16:19:59.827Z,97.49
2019-01-18T16:22:30.343Z,97.54
2019-01-18T16:25:00.949Z,97.57
2019-01-18T16:27:31.449Z,97.64
2019-01-18T16:30:01.954Z,97.68
2019-01-18T16:32:32.494Z,97.74
2019-01-18T16:35:02.982Z,97.73
2019-01-18T16:37:33.480Z,97.68
2019-01-18T16:40:04.742Z,97.63
2019-01-18T16:42:35.253Z,97.52
2019-01-18T16:45:07.008Z,97.50
2019-01-18T16:47:37.531Z,97.49
2019-01-18T16:50:10.481Z,97.52
2019-01-18T16:52:41.010Z,97.57
2019-01-18T16:55:13.975Z,97.55
2019-01-18T16:57:44.525Z,97.57
2019-01-18T17:00:22.742Z,97.61
2019-01-18T17:02:53.232Z,97.74
2019-01-18T17:05:23.735Z,97.76
2019-01-18T17:07:54.270Z,97.77
2019-01-18T17:10:24.776Z,97.80
2019-01-18T17:12:55.278Z,97.82
2019-01-18T17:15:25.790Z,97.85
2019-01-18T17:17:56.285Z,97.91
2019-01-18T17:20:30.551Z,97.92
2019-01-18T17:23:01.070Z,97.92
2019-01-18T17:25:31.579Z,97.95
2019-01-18T17:28:02.120Z,97.98
2019-01-18T17:30:32.662Z,97.95
2019-01-18T17:33:03.144Z,97.99
2019-01-18T17:35:42.580Z,98.05
2019-01-18T17:38:32.127Z,98.04
2019-01-18T17:41:19.159Z,98.06
2019-01-18T17:44:32.654Z,98.07
2019-01-18T17:48:18.919Z,98.13
2019-01-18T17:51:50.205Z,98.22
2019-01-18T17:54:47.707Z,98.33
2019-01-18T17:58:09.199Z,98.37
2019-01-18T18:01:34.079Z,98.41
2019-01-18T18:04:57.765Z,98.44
2019-01-18T18:07:57.285Z,98.45
2019-01-18T18:11:15.763Z,98.50
2019-01-18T18:14:10.182Z,98.51
2019-01-18T18:17:30.384Z,98.48
2019-01-18T18:21:11.394Z,98.44
2019-01-18T18:24:28.716Z,98.40
2019-01-18T18:27:47.040Z,98.33
2019-01-18T18:30:34.568Z,98.29
2019-01-18T18:34:09.353Z,98.23
2019-01-18T18:37:18.461Z,98.20
2019-01-18T18:40:29.046Z,98.22
2019-01-18T18:43:50.055Z,98.26
2019-01-18T18:47:01.637Z,98.25
2019-01-18T18:50:28.504Z,98.22
2019-01-18T18:53:47.311Z,98.19
2019-01-18T18:57:02.182Z,98.19
2019-01-18T19:00:19.129Z,98.17
2019-01-18T19:04:10.752Z,98.13
2019-01-18T19:07:35.101Z,98.16
2019-01-18T19:11:00.169Z,98.20
2019-01-18T19:14:38.329Z,98.25
2019-01-18T19:17:45.267Z,98.26
2019-01-18T19:21:13.502Z,98.25
2019-01-18T19:24:32.001Z,98.27
2019-01-18T19:28:00.509Z,98.33
2019-01-18T19:31:16.153Z,98.19
2019-01-18T19:34:38.904Z,98.18
2019-01-18T19:38:40.535Z,98.25
2019-01-18T19:42:27.565Z,98.34
2019-01-18T19:45:50.787Z,98.40
2019-01-18T19:49:25.100Z,98.38
2019-01-18T19:52:23.647Z,98.32
2019-01-18T19:55:28.140Z,98.27
2019-01-18T19:58:36.603Z,98.20
2019-01-18T20:02:18.606Z,98.15
2019-01-18T20:05:44.411Z,98.16
2019-01-18T20:09:36.034Z,98.17
2019-01-18T20:13:14.546Z,98.19
2019-01-18T20:16:40.693Z,98.21
2019-01-18T20:20:30.393Z,98.21
2019-01-18T20:24:00.436Z,98.23
2019-01-18T20:27:47.907Z,98.19
2019-01-18T20:31:13.654Z,98.21
2019-01-18T20:34:42.899Z,98.29
2019-01-18T20:37:53.208Z,98.33
2019-01-18T20:41:35.527Z,98.38
2019-01-18T20:44:56.464Z,98.41
2019-01-18T20:48:43.778Z,98.43
2019-01-18T20:52:12.199Z,98.46
2019-01-18T20:55:35.346Z,98.49
2019-01-18T20:58:59.282Z,98.48
2019-01-18T21:02:13.253Z,98.51
2019-01-18T21:05:28.774Z,98.51
2019-01-18T21:09:24.037Z,98.51
2019-01-18T21:12:55.102Z,98.50
2019-01-18T21:16:36.213Z,98.49
2019-01-18T21:19:36.709Z,98.50
2019-01-18T21:23:11.778Z,98.52
2019-01-18T21:26:20.773Z,98.49
2019-01-18T21:29:53.599Z,98.49
